Time;durP1;ratioP1;P1;durP2;ratioP2;P2;SDS_P1;SDS_P2;PMS_P1;PMS_P2;Temp;Humidity;BMP_temperature;BMP_pressure;BME280_temperature;BME280_humidity;BME280_pressure;Samples;Min_cycle;Max_cycle;Signal;HPM_P1;HPM_P2
2023/07/29 00:00:28;;;;;;;5.97;4.20;;;16.80;99.90;;;;;;5088591;28;20036;-65
2023/07/29 00:03:00;;;;;;;6.07;4.18;;;16.80;99.90;;;;;;5073036;28;20126;-65
2023/07/29 00:05:32;;;;;;;5.43;3.70;;;16.70;99.90;;;;;;5087430;28;20111;-65
2023/07/29 00:08:04;;;;;;;6.55;3.85;;;16.70;99.90;;;;;;5073032;28;20051;-65
2023/07/29 00:10:37;;;;;;;5.68;3.72;;;16.70;99.90;;;;;;5089567;28;20042;-65
2023/07/29 00:13:09;;;;;;;6.75;4.30;;;16.70;99.90;;;;;;5072283;28;20038;-65
2023/07/29 00:15:41;;;;;;;4.28;3.63;;;16.70;99.90;;;;;;5069785;28;20051;-65
2023/07/29 00:18:13;;;;;;;4.22;3.42;;;16.70;99.90;;;;;;5071380;28;20368;-65
2023/07/29 00:20:45;;;;;;;5.80;4.20;;;16.70;99.90;;;;;;5080292;28;20042;-65
2023/07/29 00:23:19;;;;;;;5.25;3.72;;;16.70;99.90;;;;;;5070661;28;20032;-65
2023/07/29 00:25:50;;;;;;;;;;;16.70;99.90;;;;;;5090666;28;20051;-65
2023/07/29 00:28:17;;;;;;;7.25;4.10;;;16.60;99.90;;;;;;5090060;28;19989;-65
2023/07/29 00:30:49;;;;;;;5.97;4.43;;;16.60;99.90;;;;;;5078710;28;20131;-65
2023/07/29 00:33:21;;;;;;;6.18;4.35;;;16.50;99.90;;;;;;5082154;28;20041;-65
2023/07/29 00:35:48;;;;;;;5.55;4.95;;;16.50;99.90;;;;;;5086606;28;20046;-65
2023/07/29 00:38:20;;;;;;;5.32;4.30;;;16.50;99.90;;;;;;5071822;28;20040;-65
2023/07/29 00:40:53;;;;;;;7.00;4.43;;;16.40;99.90;;;;;;5089227;28;20073;-65
2023/07/29 00:43:25;;;;;;;4.45;3.75;;;16.40;99.90;;;;;;5069834;28;20040;-65
2023/07/29 00:45:57;;;;;;;5.53;4.15;;;16.40;99.90;;;;;;5070921;28;20163;-65
2023/07/29 00:48:29;;;;;;;4.50;3.80;;;16.40;99.90;;;;;;5071759;28;20054;-65
2023/07/29 00:51:01;;;;;;;5.45;4.35;;;16.40;99.90;;;;;;5071051;28;20067;-65
2023/07/29 00:53:28;;;;;;;6.50;4.03;;;16.30;99.90;;;;;;5081324;28;20504;-65
2023/07/29 00:56:00;;;;;;;6.30;4.03;;;16.30;99.90;;;;;;5067956;28;20041;-65
2023/07/29 00:58:33;;;;;;;6.32;3.92;;;16.30;99.90;;;;;;5071585;28;20508;-65
2023/07/29 01:00:59;;;;;;;5.40;4.50;;;16.40;99.90;;;;;;5071031;28;20064;-65
2023/07/29 01:03:31;;;;;;;4.88;4.28;;;16.30;99.90;;;;;;5070910;28;20037;-65
2023/07/29 01:06:08;;;;;;;4.65;4.18;;;16.30;99.90;;;;;;5058586;28;20465;-65
2023/07/29 01:08:50;;;;;;;5.00;4.50;;;16.20;99.90;;;;;;5073946;28;20140;-65
2023/07/29 01:11:30;;;;;;;8.38;4.65;;;16.20;99.90;;;;;;5091629;28;20123;-65
2023/07/29 01:14:28;;;;;;;5.90;4.78;;;16.10;99.90;;;;;;5074938;28;20040;-65
2023/07/29 01:17:03;;;;;;;5.78;5.07;;;16.10;99.90;;;;;;5081719;28;20126;-65
2023/07/29 01:20:05;;;;;;;6.90;4.53;;;16.10;99.90;;;;;;5072432;28;20048;-65
2023/07/29 01:22:36;;;;;;;6.00;4.43;;;16.10;99.90;;;;;;5091382;28;20032;-65
2023/07/29 01:25:08;;;;;;;7.75;5.25;;;16.10;99.90;;;;;;5070067;28;20047;-65
2023/07/29 01:27:43;;;;;;;4.90;4.05;;;16.10;99.90;;;;;;5084354;28;20044;-65
2023/07/29 01:30:15;;;;;;;6.72;4.03;;;16.10;99.90;;;;;;5091672;28;20542;-65
2023/07/29 01:32:58;;;;;;;4.85;4.20;;;16.10;99.90;;;;;;5090970;28;20044;-65
2023/07/29 01:35:48;;;;;;;6.38;4.13;;;16.10;99.90;;;;;;5075130;28;20032;-65
2023/07/29 01:38:19;;;;;;;4.43;4.00;;;16.10;99.90;;;;;;5093354;28;20115;-65
2023/07/29 01:40:48;;;;;;;5.65;4.47;;;16.10;99.90;;;;;;5080277;28;20036;-65
2023/07/29 01:43:23;;;;;;;7.68;4.68;;;16.10;99.90;;;;;;5076100;28;20452;-65
2023/07/29 01:45:55;;;;;;;4.82;4.22;;;16.10;99.90;;;;;;5073100;28;20041;-65
2023/07/29 01:48:30;;;;;;;6.13;4.20;;;16.10;99.90;;;;;;5073278;28;20525;-65
2023/07/29 01:51:02;;;;;;;5.57;3.72;;;16.10;99.90;;;;;;5072818;28;20127;-65
2023/07/29 01:53:34;;;;;;;4.88;4.30;;;16.10;99.90;;;;;;5075009;28;20044;-65
2023/07/29 01:56:07;;;;;;;5.03;4.28;;;16.10;99.90;;;;;;5074822;28;20131;-65
2023/07/29 01:58:48;;;;;;;5.82;4.57;;;16.10;99.90;;;;;;5060269;28;20040;-65
2023/07/29 02:01:15;;;;;;;5.28;4.22;;;16.10;99.90;;;;;;5074355;28;20113;-65
2023/07/29 02:03:54;;;;;;;9.18;5.25;;;16.10;99.90;;;;;;5080146;28;20576;-65
2023/07/29 02:06:27;;;;;;;6.30;4.93;;;16.10;99.90;;;;;;5060031;28;20093;-65
2023/07/29 02:08:59;;;;;;;5.00;4.50;;;15.90;99.90;;;;;;5070597;28;20128;-65
2023/07/29 02:11:27;;;;;;;5.22;4.72;;;15.90;99.90;;;;;;5090971;28;20044;-65
2023/07/29 02:13:55;;;;;;;4.80;4.15;;;15.90;99.90;;;;;;5072476;28;20046;-65
2023/07/29 02:16:27;;;;;;;6.33;5.13;;;15.90;99.90;;;;;;5071501;28;20039;-65
2023/07/29 02:18:58;;;;;;;5.88;4.70;;;15.90;99.90;;;;;;5070298;28;20106;-65
2023/07/29 02:21:30;;;;;;;6.55;4.50;;;15.90;99.90;;;;;;5074411;28;20036;-65
2023/07/29 02:24:02;;;;;;;6.32;4.85;;;15.80;99.90;;;;;;5076050;28;20048;-65
2023/07/29 02:26:35;;;;;;;6.47;4.28;;;15.80;99.90;;;;;;5092463;28;20507;-65
2023/07/29 02:29:07;;;;;;;5.18;4.35;;;15.80;99.90;;;;;;5072554;28;20123;-65
2023/07/29 02:31:39;;;;;;;5.45;4.60;;;15.80;99.90;;;;;;5088979;28;20044;-65
2023/07/29 02:34:11;;;;;;;5.10;4.25;;;15.80;99.90;;;;;;5063480;28;20512;-65
2023/07/29 02:36:42;;;;;;;4.75;3.88;;;15.90;99.90;;;;;;5088910;28;20059;-65
2023/07/29 02:39:15;;;;;;;6.15;4.00;;;15.90;99.90;;;;;;5065080;28;20064;-65
2023/07/29 02:41:46;;;;;;;6.05;4.13;;;15.90;99.90;;;;;;5079434;28;20036;-65
2023/07/29 02:44:19;;;;;;;4.63;4.05;;;15.90;99.90;;;;;;5073771;28;20040;-65
2023/07/29 02:46:52;;;;;;;5.05;4.50;;;15.80;99.90;;;;;;5070605;28;20039;-65
2023/07/29 02:49:24;;;;;;;5.28;4.20;;;15.80;99.90;;;;;;5084598;22;20048;-66
2023/07/29 02:51:56;;;;;;;6.18;4.05;;;15.80;99.90;;;;;;5083177;28;20063;-65
2023/07/29 02:54:28;;;;;;;4.60;3.80;;;15.80;99.90;;;;;;5085275;28;20061;-65
2023/07/29 02:57:00;;;;;;;7.75;4.72;;;15.70;99.90;;;;;;5084719;28;20039;-65
2023/07/29 02:59:27;;;;;;;4.40;3.70;;;15.70;99.90;;;;;;5084305;28;20039;-65
2023/07/29 03:01:59;;;;;;;5.32;4.00;;;15.70;99.90;;;;;;5065580;28;20040;-65
2023/07/29 03:04:31;;;;;;;5.20;4.28;;;15.70;99.90;;;;;;5081786;28;20041;-65
2023/07/29 03:06:59;;;;;;;6.07;4.72;;;15.70;99.90;;;;;;5077272;28;20086;-65
2023/07/29 03:09:32;;;;;;;5.50;3.85;;;15.60;99.90;;;;;;5078914;28;20036;-65
2023/07/29 03:12:31;;;;;;;5.20;4.25;;;15.60;99.90;;;;;;5087619;28;20415;-64
2023/07/29 03:14:59;;;;;;;4.93;4.10;;;15.60;99.90;;;;;;5084949;28;20173;-65
2023/07/29 03:17:31;;;;;;;5.03;4.40;;;15.60;99.90;;;;;;5085428;28;20056;-66
2023/07/29 03:20:03;;;;;;;6.45;3.90;;;15.60;99.90;;;;;;5085197;28;20040;-66
2023/07/29 03:22:30;;;;;;;5.55;4.10;;;15.60;99.90;;;;;;5084342;28;20468;-65
2023/07/29 03:25:03;;;;;;;4.90;4.00;;;15.60;99.90;;;;;;5079876;28;20048;-65
2023/07/29 03:27:36;;;;;;;5.10;3.50;;;15.60;99.90;;;;;;5056532;28;20097;-65
2023/07/29 03:30:08;;;;;;;6.28;4.32;;;15.50;99.90;;;;;;5076401;28;20048;-65
2023/07/29 03:32:45;;;;;;;6.45;4.00;;;15.50;99.90;;;;;;5070396;28;20059;-65
2023/07/29 03:35:17;;;;;;;5.25;3.60;;;15.50;99.90;;;;;;5085888;28;20040;-65
2023/07/29 03:37:44;;;;;;;4.63;3.75;;;15.50;99.90;;;;;;5083755;28;20042;-65
2023/07/29 03:40:11;;;;;;;4.25;3.55;;;15.50;99.90;;;;;;5102607;28;20088;-65
2023/07/29 03:42:38;;;;;;;4.57;3.75;;;15.50;99.90;;;;;;5087009;28;20094;-65
2023/07/29 03:45:10;;;;;;;5.47;3.58;;;15.50;99.90;;;;;;5059737;28;20047;-66
2023/07/29 03:47:37;;;;;;;4.95;3.42;;;15.60;99.90;;;;;;5081841;28;20106;-66
2023/07/29 03:50:09;;;;;;;5.75;3.50;;;15.60;99.90;;;;;;5092326;28;20048;-65
2023/07/29 03:52:36;;;;;;;4.45;3.88;;;15.60;99.90;;;;;;5077231;28;20115;-65
2023/07/29 03:55:08;;;;;;;3.90;3.42;;;15.50;99.90;;;;;;5091840;28;20051;-65
2023/07/29 03:57:35;;;;;;;3.90;3.50;;;15.50;99.90;;;;;;5091935;28;20431;-65
2023/07/29 04:00:03;;;;;;;5.45;3.47;;;15.50;99.90;;;;;;5082890;28;20120;-65
2023/07/29 04:02:41;;;;;;;3.70;3.30;;;15.60;99.90;;;;;;5102170;28;20035;-65
2023/07/29 04:05:14;;;;;;;4.30;3.90;;;15.50;99.90;;;;;;5087937;28;20055;-65
2023/07/29 04:07:46;;;;;;;3.80;3.13;;;15.50;99.90;;;;;;5090481;28;20138;-65
2023/07/29 04:10:18;;;;;;;3.95;3.50;;;15.50;99.90;;;;;;5080340;28;20048;-65
2023/07/29 04:12:45;;;;;;;4.88;3.60;;;15.60;99.90;;;;;;5078670;28;20148;-65
2023/07/29 04:15:16;;;;;;;5.55;3.80;;;15.60;99.90;;;;;;5077021;28;20048;-65
2023/07/29 04:17:43;;;;;;;4.00;3.60;;;15.60;99.90;;;;;;5098311;28;20050;-65
2023/07/29 04:20:15;;;;;;;4.93;3.90;;;15.70;99.90;;;;;;5070184;28;20406;-65
2023/07/29 04:22:47;;;;;;;4.68;3.72;;;15.70;99.90;;;;;;5087308;28;20044;-65
2023/07/29 04:25:19;;;;;;;3.92;3.50;;;15.70;99.90;;;;;;5086270;28;20086;-65
2023/07/29 04:27:51;;;;;;;4.53;3.50;;;15.80;99.90;;;;;;5088534;28;20048;-65
2023/07/29 04:30:23;;;;;;;4.68;3.50;;;15.80;99.90;;;;;;5088952;28;20122;-65
2023/07/29 04:32:55;;;;;;;4.93;3.70;;;15.90;99.90;;;;;;5076617;28;20514;-65
2023/07/29 04:35:22;;;;;;;4.28;3.88;;;15.90;99.90;;;;;;5077575;28;20064;-65
2023/07/29 04:37:54;;;;;;;4.43;3.80;;;15.90;99.90;;;;;;5072575;28;20067;-65
2023/07/29 04:40:25;;;;;;;4.45;3.47;;;15.90;99.90;;;;;;5083389;28;20277;-65
2023/07/29 04:42:59;;;;;;;3.83;3.42;;;15.90;99.90;;;;;;5091754;28;20064;-65
2023/07/29 04:45:31;;;;;;;4.05;3.15;;;16.00;99.90;;;;;;5084278;28;20797;-65
2023/07/29 04:48:03;;;;;;;4.85;3.60;;;16.00;99.90;;;;;;5090463;28;20051;-65
2023/07/29 04:50:35;;;;;;;7.50;3.97;;;16.10;99.90;;;;;;5090509;28;20039;-65
2023/07/29 04:53:02;;;;;;;4.57;3.42;;;16.20;99.90;;;;;;5105799;28;20067;-66
2023/07/29 04:55:34;;;;;;;4.63;3.70;;;16.30;99.90;;;;;;5068728;28;20124;-65
2023/07/29 04:58:06;;;;;;;9.25;6.53;;;16.40;99.90;;;;;;5089919;28;20059;-65
2023/07/29 05:00:33;;;;;;;9.55;6.00;;;16.40;99.90;;;;;;5103503;28;20130;-65
2023/07/29 05:03:01;;;;;;;7.88;4.65;;;16.40;99.90;;;;;;5064804;28;20079;-65
2023/07/29 05:05:27;;;;;;;6.50;4.63;;;16.40;99.90;;;;;;5083811;28;20092;-65
2023/07/29 05:07:55;;;;;;;6.57;4.43;;;16.30;99.90;;;;;;5091677;28;20106;-65
2023/07/29 05:10:27;;;;;;;5.43;4.53;;;16.30;99.90;;;;;;5091272;28;20067;-65
2023/07/29 05:12:58;;;;;;;7.53;4.88;;;16.20;99.90;;;;;;5086668;28;20418;-65
2023/07/29 05:15:30;;;;;;;9.15;5.50;;;16.20;99.90;;;;;;5110196;28;20036;-65
2023/07/29 05:18:03;;;;;;;6.55;4.55;;;16.30;99.90;;;;;;5075266;28;20051;-65
2023/07/29 05:20:35;;;;;;;7.32;4.97;;;16.30;99.90;;;;;;5080397;28;20036;-66
2023/07/29 05:23:07;;;;;;;5.13;4.35;;;16.30;99.90;;;;;;5079518;28;20528;-65
2023/07/29 05:25:34;;;;;;;3.90;3.50;;;16.30;99.90;;;;;;5086667;28;20028;-66
2023/07/29 05:28:06;;;;;;;6.18;4.88;;;16.30;99.90;;;;;;5085406;28;20143;-65
2023/07/29 05:30:40;;;;;;;5.35;4.57;;;16.30;99.90;;;;;;5083346;28;20036;-65
2023/07/29 05:33:11;;;;;;;5.70;4.45;;;16.40;99.90;;;;;;5087497;28;20614;-65
2023/07/29 05:35:43;;;;;;;16.70;12.27;;;16.40;99.90;;;;;;5087454;28;20067;-65
2023/07/29 05:38:15;;;;;;;13.73;9.90;;;16.50;99.90;;;;;;5083911;28;20036;-65
2023/07/29 05:40:48;;;;;;;10.05;8.88;;;16.50;99.90;;;;;;5094835;28;20043;-65
2023/07/29 05:43:15;;;;;;;12.27;9.25;;;16.60;99.90;;;;;;5087140;28;20130;-65
2023/07/29 05:45:42;;;;;;;8.95;7.28;;;16.60;99.90;;;;;;5078768;28;20082;-65
2023/07/29 05:48:14;;;;;;;7.22;5.97;;;16.70;99.90;;;;;;5073078;28;20777;-65
2023/07/29 05:50:46;;;;;;;6.85;5.00;;;16.70;99.90;;;;;;5058088;28;20087;-65
2023/07/29 05:53:18;;;;;;;8.00;7.20;;;16.70;99.90;;;;;;5074066;28;20053;-65
2023/07/29 05:55:50;;;;;;;6.38;4.10;;;16.70;99.90;;;;;;5088157;28;20109;-65
2023/07/29 05:58:17;;;;;;;4.72;3.72;;;16.70;99.90;;;;;;5104845;28;20430;-65
2023/07/29 06:00:44;;;;;;;5.43;3.20;;;16.80;99.90;;;;;;5085950;28;20068;-65
2023/07/29 06:03:15;;;;;;;4.50;3.40;;;16.80;99.90;;;;;;5099996;28;20040;-65
2023/07/29 06:05:50;;;;;;;3.90;3.40;;;16.90;99.90;;;;;;5086956;28;20044;-65
2023/07/29 06:08:22;;;;;;;4.32;3.63;;;16.90;99.90;;;;;;5071411;28;20553;-66
2023/07/29 06:10:48;;;;;;;3.67;2.97;;;17.00;99.90;;;;;;5081232;28;20044;-65
2023/07/29 06:13:20;;;;;;;5.28;3.78;;;17.00;99.90;;;;;;5071708;28;20086;-66
2023/07/29 06:15:53;;;;;;;4.93;3.03;;;17.10;99.90;;;;;;5071327;28;20124;-65
2023/07/29 06:18:20;;;;;;;4.50;3.35;;;17.10;99.90;;;;;;5105430;28;20040;-66
2023/07/29 06:20:52;;;;;;;5.47;3.92;;;17.20;99.90;;;;;;5086107;28;20036;-66
2023/07/29 06:23:24;;;;;;;5.68;3.72;;;17.30;99.90;;;;;;5071032;28;20412;-66
2023/07/29 06:25:56;;;;;;;4.57;3.60;;;17.20;99.90;;;;;;5065285;28;20047;-66
2023/07/29 06:28:28;;;;;;;4.40;3.67;;;17.30;99.90;;;;;;5074392;28;20043;-66
2023/07/29 06:30:55;;;;;;;4.97;3.30;;;17.30;99.90;;;;;;5073881;28;20054;-67
2023/07/29 06:33:27;;;;;;;6.22;3.40;;;17.30;99.90;;;;;;5098531;28;20036;-66
2023/07/29 06:35:59;;;;;;;6.72;3.97;;;17.20;99.90;;;;;;5082313;28;20040;-66
2023/07/29 06:38:31;;;;;;;4.10;3.63;;;17.20;99.90;;;;;;5084809;28;20511;-67
2023/07/29 06:41:06;;;;;;;5.53;4.18;;;17.20;99.90;;;;;;5084919;28;20048;-66
2023/07/29 06:43:38;;;;;;;5.00;3.78;;;17.20;99.90;;;;;;5105381;28;20063;-67
2023/07/29 06:46:10;;;;;;;5.90;3.75;;;17.20;99.90;;;;;;5098959;28;20508;-67
2023/07/29 06:48:37;;;;;;;6.47;4.20;;;17.30;99.90;;;;;;5107789;28;20036;-71
2023/07/29 06:51:09;;;;;;;6.82;4.50;;;17.30;99.90;;;;;;5074774;28;20044;-67
2023/07/29 06:53:41;;;;;;;7.10;5.13;;;17.40;99.90;;;;;;5083654;28;20120;-67
2023/07/29 06:56:13;;;;;;;6.38;4.90;;;17.50;99.90;;;;;;5077999;28;20048;-66
2023/07/29 06:58:45;;;;;;;7.47;4.65;;;17.50;99.90;;;;;;5079956;28;20047;-67
2023/07/29 07:01:11;;;;;;;6.32;4.47;;;17.60;99.90;;;;;;5077811;28;20131;-67
2023/07/29 07:03:43;;;;;;;5.20;4.13;;;17.60;99.90;;;;;;5082345;28;20040;-67
2023/07/29 07:06:15;;;;;;;5.50;4.47;;;17.70;99.90;;;;;;5086878;28;20051;-66
2023/07/29 07:08:47;;;;;;;5.68;4.60;;;17.80;99.90;;;;;;5072918;28;20068;-66
2023/07/29 07:11:19;;;;;;;6.57;4.50;;;17.90;99.90;;;;;;5076087;28;20425;-66
2023/07/29 07:13:51;;;;;;;5.07;3.80;;;18.10;99.90;;;;;;5100349;28;20040;-66
2023/07/29 07:16:23;;;;;;;4.88;3.65;;;18.30;99.90;;;;;;5095182;28;20736;-66
2023/07/29 07:18:51;;;;;;;5.60;4.55;;;18.60;99.90;;;;;;5107112;28;20036;-65
2023/07/29 07:21:18;;;;;;;5.43;3.60;;;18.70;99.90;;;;;;5100156;28;20578;-66
2023/07/29 07:23:50;;;;;;;5.88;3.70;;;18.80;99.90;;;;;;5097705;28;20051;-66
2023/07/29 07:26:17;;;;;;;4.57;3.05;;;18.90;99.90;;;;;;5083925;28;20063;-65
2023/07/29 07:28:44;;;;;;;4.82;3.42;;;18.90;99.90;;;;;;5103814;28;20134;-66
2023/07/29 07:31:16;;;;;;;4.45;3.95;;;18.80;99.90;;;;;;5100616;28;20038;-66
2023/07/29 07:33:43;;;;;;;5.43;3.70;;;18.80;99.90;;;;;;5097520;28;20043;-66
2023/07/29 07:36:15;;;;;;;3.70;3.30;;;18.80;99.90;;;;;;5097671;28;20055;-66
2023/07/29 07:38:47;;;;;;;3.83;3.27;;;18.80;99.90;;;;;;5084476;28;20612;-65
2023/07/29 07:41:19;;;;;;;4.45;3.83;;;18.80;99.90;;;;;;5081418;28;20050;-66
2023/07/29 07:43:46;;;;;;;5.63;3.45;;;18.80;99.90;;;;;;5110461;28;20051;-65
2023/07/29 07:46:18;;;;;;;4.65;3.78;;;18.80;99.90;;;;;;5082942;28;20042;-65
2023/07/29 07:48:49;;;;;;;4.60;4.10;;;18.80;99.90;;;;;;5100931;28;20050;-65
2023/07/29 07:51:16;;;;;;;4.97;3.55;;;18.90;99.90;;;;;;5105625;28;20043;-66
2023/07/29 07:53:43;;;;;;;4.95;4.00;;;18.90;99.90;;;;;;5101301;28;20078;-67
2023/07/29 07:56:15;;;;;;;4.20;3.40;;;19.00;99.90;;;;;;5100208;28;20502;-66
2023/07/29 07:58:42;;;;;;;4.20;3.53;;;19.00;99.90;;;;;;5081033;28;20250;-64
2023/07/29 08:01:14;;;;;;;8.52;4.03;;;19.10;99.90;;;;;;5082836;28;20582;-69
2023/07/29 08:03:45;;;;;;;6.70;4.30;;;19.10;99.90;;;;;;5075404;28;20046;-65
2023/07/29 08:06:17;;;;;;;4.22;3.42;;;19.10;99.90;;;;;;5083240;28;20131;-65
2023/07/29 08:08:49;;;;;;;5.10;4.13;;;19.20;99.90;;;;;;5101857;28;20598;-65
2023/07/29 08:11:21;;;;;;;6.57;4.03;;;19.30;99.90;;;;;;5094313;28;20032;-65
2023/07/29 08:13:52;;;;;;;4.57;3.70;;;19.40;99.90;;;;;;5071628;28;20055;-65
2023/07/29 08:16:24;;;;;;;4.93;3.90;;;19.50;99.90;;;;;;5097050;28;21013;-65
2023/07/29 08:18:56;;;;;;;4.95;4.22;;;19.50;99.90;;;;;;5098275;28;20054;-65
2023/07/29 08:21:24;;;;;;;5.28;3.72;;;19.60;99.90;;;;;;5093341;28;20151;-64
2023/07/29 08:23:55;;;;;;;4.80;4.25;;;19.70;99.90;;;;;;5069561;28;20055;-65
2023/07/29 08:26:27;;;;;;;5.18;4.15;;;19.80;99.90;;;;;;5097025;28;20075;-65
2023/07/29 08:29:02;;;;;;;4.97;4.18;;;19.90;99.90;;;;;;5091535;28;20135;-65
2023/07/29 08:31:37;;;;;;;4.22;3.60;;;20.00;99.90;;;;;;5095043;28;20028;-64
2023/07/29 08:34:17;;;;;;;5.22;4.30;;;20.10;99.90;;;;;;5099348;28;20046;-63
2023/07/29 08:36:52;;;;;;;4.78;4.28;;;20.30;99.90;;;;;;5100772;28;20534;-65
2023/07/29 08:39:24;;;;;;;5.28;4.25;;;20.50;99.90;;;;;;5085151;28;20069;-64
2023/07/29 08:42:04;;;;;;;5.40;4.18;;;20.70;99.90;;;;;;5057230;28;20064;-65
2023/07/29 08:44:41;;;;;;;5.13;3.75;;;20.90;99.90;;;;;;5084136;28;20036;-65
2023/07/29 08:47:08;;;;;;;5.10;3.95;;;21.10;99.90;;;;;;5095506;28;20162;-65
2023/07/29 08:49:36;;;;;;;7.00;4.65;;;21.20;99.90;;;;;;5092489;28;20090;-64
2023/07/29 08:52:09;;;;;;;3.97;3.40;;;21.40;99.90;;;;;;5076819;28;20040;-64
2023/07/29 08:54:36;;;;;;;5.38;4.00;;;21.40;99.90;;;;;;5076029;28;20039;-65
2023/07/29 08:57:04;;;;;;;5.18;4.22;;;21.50;99.90;;;;;;5098227;28;20094;-65
2023/07/29 08:59:36;;;;;;;6.43;4.22;;;21.60;99.90;;;;;;5098395;28;20089;-67
2023/07/29 09:02:08;;;;;;;4.63;4.13;;;21.80;99.90;;;;;;5096576;28;20085;-65
2023/07/29 09:04:35;;;;;;;7.32;3.60;;;22.00;99.90;;;;;;5096302;28;20036;-65
2023/07/29 09:07:02;;;;;;;4.38;3.80;;;22.00;99.90;;;;;;5069341;28;20036;-67
2023/07/29 09:09:34;;;;;;;6.47;3.45;;;22.20;99.90;;;;;;5089550;28;20117;-67
2023/07/29 09:12:01;;;;;;;4.32;3.53;;;22.30;99.90;;;;;;5091838;28;20039;-65
2023/07/29 09:14:33;;;;;;;3.47;3.17;;;22.50;99.90;;;;;;5094928;28;20538;-66
2023/07/29 09:17:09;;;;;;;4.50;3.65;;;22.70;99.90;;;;;;5088930;28;20040;-66
2023/07/29 09:19:41;;;;;;;4.47;3.70;;;22.80;99.90;;;;;;5095034;28;20602;-66
2023/07/29 09:22:22;;;;;;;4.60;3.55;;;22.80;99.90;;;;;;5092161;28;20046;-66
2023/07/29 09:24:57;;;;;;;6.32;3.67;;;22.80;99.90;;;;;;5072565;28;20047;-65
2023/07/29 09:27:31;;;;;;;3.67;3.38;;;22.80;99.90;;;;;;5078354;28;20040;-64
2023/07/29 09:30:04;;;;;;;4.15;3.65;;;22.90;99.90;;;;;;5075049;28;20093;-64
2023/07/29 09:32:39;;;;;;;3.83;3.40;;;23.00;99.90;;;;;;5099113;28;20038;-65
2023/07/29 09:35:11;;;;;;;4.20;3.17;;;23.00;99.90;;;;;;5100467;28;20039;-65
2023/07/29 09:37:39;;;;;;;4.80;3.63;;;22.90;99.90;;;;;;5100178;28;20139;-65
2023/07/29 09:40:15;;;;;;;5.20;3.40;;;22.90;99.90;;;;;;5102118;28;20131;-65
2023/07/29 09:42:54;;;;;;;4.70;3.40;;;22.70;99.90;;;;;;5094573;28;20059;-65
2023/07/29 09:45:27;;;;;;;9.10;4.07;;;22.50;99.90;;;;;;5101628;28;20042;-65
2023/07/29 09:47:59;;;;;;;6.22;4.35;;;22.40;99.90;;;;;;5100134;28;20043;-65
2023/07/29 09:50:27;;;;;;;4.60;4.13;;;22.20;99.90;;;;;;5092229;28;20131;-65
2023/07/29 09:52:59;;;;;;;3.75;3.05;;;21.80;99.90;;;;;;5082066;28;20111;-65
2023/07/29 09:55:33;;;;;;;3.40;2.45;;;21.50;99.90;;;;;;5102895;28;20040;-66
2023/07/29 09:58:08;;;;;;;2.67;2.00;;;21.10;99.90;;;;;;5100432;28;20043;-65
2023/07/29 10:00:35;;;;;;;3.88;2.47;;;20.90;99.90;;;;;;5100477;28;20530;-65
2023/07/29 10:03:07;;;;;;;3.57;2.33;;;20.60;99.90;;;;;;5098598;28;20503;-65
2023/07/29 10:05:40;;;;;;;6.00;3.15;;;20.30;99.90;;;;;;5088264;28;20051;-64
2023/07/29 10:08:13;;;;;;;6.50;3.50;;;20.00;99.90;;;;;;5074711;28;20032;-65
2023/07/29 10:10:45;;;;;;;5.00;3.53;;;19.60;99.90;;;;;;5090574;28;20032;-65
2023/07/29 10:13:17;;;;;;;4.13;3.00;;;19.50;99.90;;;;;;5097636;28;20042;-65
2023/07/29 10:15:50;;;;;;;4.57;3.00;;;19.30;99.90;;;;;;5076814;28;20033;-66
2023/07/29 10:18:19;;;;;;;5.88;3.80;;;19.30;99.90;;;;;;5096984;28;20094;-66
2023/07/29 10:20:48;;;;;;;4.03;2.97;;;19.20;99.90;;;;;;5098895;28;20059;-66
2023/07/29 10:23:17;;;;;;;5.13;2.85;;;19.20;99.90;;;;;;5099603;28;20407;-66
2023/07/29 10:26:05;;;;;;;4.28;2.58;;;19.10;99.90;;;;;;5102812;28;20508;-66
2023/07/29 10:28:47;;;;;;;6.63;3.20;;;19.10;99.90;;;;;;5099939;28;20570;-66
2023/07/29 10:31:21;;;;;;;3.83;2.80;;;19.20;99.90;;;;;;5098791;28;20044;-66
2023/07/29 10:33:49;;;;;;;5.68;3.05;;;19.30;99.90;;;;;;5103526;28;20043;-66
2023/07/29 10:36:21;;;;;;;3.40;2.78;;;19.60;99.90;;;;;;5066540;28;20047;-66
2023/07/29 10:38:53;;;;;;;4.65;3.75;;;19.90;99.90;;;;;;5087950;28;20200;-65
2023/07/29 10:41:20;;;;;;;5.47;3.78;;;20.20;99.90;;;;;;5082719;28;20039;-65
2023/07/29 10:43:47;;;;;;;4.43;3.15;;;20.50;99.90;;;;;;5100381;28;20519;-65
2023/07/29 10:46:23;;;;;;;5.22;4.03;;;20.80;99.90;;;;;;5081215;28;20608;-65
2023/07/29 10:48:56;;;;;;;4.28;3.78;;;21.10;99.90;;;;;;5101152;28;20067;-65
2023/07/29 10:51:36;;;;;;;4.68;3.92;;;21.30;99.90;;;;;;5101250;28;20487;-65
2023/07/29 10:54:16;;;;;;;3.92;3.58;;;21.50;99.90;;;;;;5098978;28;20407;-65
2023/07/29 10:56:49;;;;;;;4.00;3.03;;;21.70;99.90;;;;;;5105009;28;20055;-65
2023/07/29 10:59:21;;;;;;;4.97;3.88;;;21.90;99.90;;;;;;5076359;28;20032;-65
2023/07/29 11:01:54;;;;;;;4.75;3.75;;;22.10;99.90;;;;;;5081525;28;20044;-65
2023/07/29 11:04:21;;;;;;;4.50;3.33;;;22.30;99.90;;;;;;5093301;28;20057;-65
2023/07/29 11:07:09;;;;;;;4.25;3.28;;;22.50;99.90;;;;;;5084361;28;20040;-65
2023/07/29 11:09:51;;;;;;;4.38;3.28;;;22.60;99.90;;;;;;5082748;28;20529;-65
2023/07/29 11:12:54;;;;;;;7.13;3.80;;;22.80;99.90;;;;;;5099383;28;20132;-64
2023/07/29 11:15:28;;;;;;;3.97;3.60;;;22.90;99.90;;;;;;5100814;28;20035;-65
2023/07/29 11:18:01;;;;;;;4.88;3.58;;;22.80;99.90;;;;;;5083409;28;20036;-65
2023/07/29 11:20:34;;;;;;;6.07;3.78;;;22.60;99.90;;;;;;5099503;28;20131;-65
2023/07/29 11:23:05;;;;;;;5.88;3.75;;;22.50;99.90;;;;;;5105600;28;20036;-63
2023/07/29 11:25:38;;;;;;;4.32;3.70;;;22.40;99.90;;;;;;5100761;28;20058;-63
2023/07/29 11:28:10;;;;;;;4.30;3.63;;;22.20;99.90;;;;;;5107380;28;20088;-65
2023/07/29 11:30:41;;;;;;;4.75;3.38;;;22.20;99.90;;;;;;5065600;28;20051;-66
2023/07/29 11:33:13;;;;;;;5.07;3.78;;;22.10;99.90;;;;;;5076382;28;20040;-66
2023/07/29 11:35:45;;;;;;;6.53;4.05;;;22.00;99.90;;;;;;5107814;28;20043;-65
2023/07/29 11:38:21;;;;;;;5.72;4.40;;;22.00;99.90;;;;;;5088011;28;20045;-66
2023/07/29 11:40:56;;;;;;;4.15;3.28;;;22.00;99.90;;;;;;5061171;22;20045;-67
2023/07/29 11:43:28;;;;;;;4.53;3.95;;;21.80;99.90;;;;;;5048560;28;20051;-66
2023/07/29 11:46:01;;;;;;;5.80;3.60;;;21.60;99.90;;;;;;5050679;28;20076;-66
2023/07/29 11:48:33;;;;;;;5.72;3.50;;;21.30;99.90;;;;;;5049349;28;20112;-67
2023/07/29 11:51:03;;;;;;;3.42;3.05;;;21.30;99.90;;;;;;5015932;28;20523;-67
2023/07/29 11:53:35;;;;;;;4.28;2.90;;;21.50;99.90;;;;;;5028182;28;20548;-67
2023/07/29 11:56:06;;;;;;;4.03;3.53;;;21.70;99.90;;;;;;5027357;28;20468;-66
2023/07/29 11:58:38;;;;;;;4.03;3.42;;;21.90;99.90;;;;;;5011444;28;20125;-67
2023/07/29 12:01:10;;;;;;;6.07;4.18;;;22.10;99.90;;;;;;5028449;28;20047;-68
2023/07/29 12:03:43;;;;;;;4.03;3.35;;;22.20;99.90;;;;;;5016257;28;20045;-67
2023/07/29 12:06:16;;;;;;;3.60;3.30;;;22.10;99.90;;;;;;5029983;28;20068;-68
2023/07/29 12:08:48;;;;;;;4.60;3.63;;;22.00;99.90;;;;;;5029052;28;20043;-67
2023/07/29 12:11:20;;;;;;;4.28;3.33;;;22.20;99.90;;;;;;5028713;28;20037;-67
2023/07/29 12:13:47;;;;;;;4.70;4.15;;;22.50;99.90;;;;;;5012436;28;20065;-67
2023/07/29 12:16:19;;;;;;;5.75;3.60;;;22.80;99.90;;;;;;5010764;28;20041;-68
2023/07/29 12:18:51;;;;;;;4.72;3.25;;;22.90;99.90;;;;;;5027238;28;21027;-68
2023/07/29 12:21:23;;;;;;;4.03;3.63;;;23.00;99.90;;;;;;4996152;28;20056;-68
2023/07/29 12:23:55;;;;;;;4.65;3.53;;;23.10;99.90;;;;;;5027538;28;20107;-69
2023/07/29 12:26:28;;;;;;;3.80;3.40;;;23.10;99.90;;;;;;5030513;28;20042;-69
2023/07/29 12:29:11;;;;;;;4.63;3.65;;;23.20;99.90;;;;;;5005075;28;20045;-69
2023/07/29 12:31:43;;;;;;;3.75;3.13;;;23.40;99.90;;;;;;5029629;28;20468;-67
2023/07/29 12:34:11;;;;;;;5.30;3.20;;;23.40;99.90;;;;;;5030482;28;20049;-67
2023/07/29 12:36:47;;;;;;;4.45;3.05;;;23.50;99.90;;;;;;5000596;28;20081;-67
2023/07/29 12:39:26;;;;;;;4.38;2.28;;;23.70;99.90;;;;;;5029178;28;20045;-67
2023/07/29 12:41:56;;;;;;;3.28;2.75;;;23.60;99.90;;;;;;5028238;28;20128;-67
2023/07/29 12:44:34;;;;;;;3.38;2.63;;;23.60;99.90;;;;;;5026971;28;20045;-67
2023/07/29 12:47:08;;;;;;;4.68;2.90;;;23.70;99.90;;;;;;5029147;28;20042;-67
2023/07/29 12:49:40;;;;;;;5.28;2.72;;;23.70;99.90;;;;;;5026986;28;20037;-67
2023/07/29 12:52:12;;;;;;;3.75;3.35;;;23.70;99.90;;;;;;5028638;28;20044;-67
2023/07/29 12:54:44;;;;;;;4.03;3.25;;;23.60;99.90;;;;;;5027737;28;20049;-67
2023/07/29 12:57:15;;;;;;;3.75;3.20;;;23.70;99.90;;;;;;5014090;28;20055;-67
2023/07/29 12:59:47;;;;;;;4.22;3.08;;;23.70;99.90;;;;;;5033337;28;20041;-67
2023/07/29 13:02:14;;;;;;;3.97;2.83;;;23.90;99.90;;;;;;5030056;28;20029;-67
2023/07/29 13:04:41;;;;;;;2.85;2.50;;;24.10;99.90;;;;;;5030614;28;20072;-67
2023/07/29 13:07:08;;;;;;;3.00;2.70;;;24.20;99.90;;;;;;5016604;28;20382;-67
2023/07/29 13:09:35;;;;;;;4.03;2.75;;;24.30;99.90;;;;;;5034230;28;20096;-67
2023/07/29 13:12:02;;;;;;;3.45;3.03;;;24.50;99.90;;;;;;5015629;28;20041;-67